BLY935D LFBE-EGGP
Flight info
| Callsign | BLY935D |
|---|---|
| Flight time | 1h 35m |
| Altitude | 38000 |
| Route | VELIN DCT UVELI DCT CNA DCT MANAK UT183 BAGAD DCT MUREL DCT NOZHU DCT SHIRI DCT TOJAQ DCT EPACE DCT ACCOP DCT MOCQO P16 PEPZE |
| Aircraft | A319/M-SDE3FGHIRWY/LB1 |
Departure
| Time | 2026-04-21 14:33 |
|---|---|
| Airport | Bergerac Dordogne-Périgord airport (LFBE) |
Arrival
| Time | 2026-04-21 16:08 |
|---|---|
| Airport | Liverpool John Lennon Airport (EGGP) |
| Time | Latitude | Longitude | Altitude | Speed | Heading |
|---|---|---|---|---|---|
| 2026-04-21 14:15 | 44.82276 | 0.51551 | 177 ft | 0 kts | 310° |
| 2026-04-21 14:29 | 44.82283 | 0.51542 | 177 ft | 5 kts | 318° |
| 2026-04-21 14:30 | 44.82310 | 0.51499 | 177 ft | 6 kts | 292° |
| 2026-04-21 14:30 | 44.82314 | 0.51439 | 177 ft | 6 kts | 274° |
| 2026-04-21 14:30 | 44.82317 | 0.51375 | 177 ft | 7 kts | 273° |
| 2026-04-21 14:30 | 44.82320 | 0.51307 | 177 ft | 8 kts | 275° |
| 2026-04-21 14:31 | 44.82327 | 0.51182 | 177 ft | 15 kts | 274° |
| 2026-04-21 14:31 | 44.82335 | 0.51032 | 177 ft | 15 kts | 274° |
| 2026-04-21 14:31 | 44.82344 | 0.50881 | 177 ft | 15 kts | 274° |
| 2026-04-21 14:31 | 44.82351 | 0.50730 | 177 ft | 15 kts | 274° |
| 2026-04-21 14:32 | 44.82410 | 0.50658 | 177 ft | 13 kts | 7° |
| 2026-04-21 14:32 | 44.82499 | 0.50662 | 177 ft | 13 kts | 337° |
| 2026-04-21 14:32 | 44.82553 | 0.50565 | 177 ft | 12 kts | 302° |
| 2026-04-21 14:32 | 44.82523 | 0.50545 | 177 ft | 9 kts | 105° |
| 2026-04-21 14:33 | 44.82517 | 0.50676 | 177 ft | 30 kts | 94° |
| 2026-04-21 14:33 | 44.82482 | 0.51327 | 178 ft | 100 kts | 94° |
| 2026-04-21 14:33 | 44.82418 | 0.52567 | 197 ft | 150 kts | 92° |
| 2026-04-21 14:33 | 44.82333 | 0.54043 | 817 ft | 149 kts | 92° |
| 2026-04-21 14:34 | 44.82255 | 0.55513 | 1411 ft | 153 kts | 92° |
| 2026-04-21 14:34 | 44.82172 | 0.57023 | 1984 ft | 158 kts | 92° |
| 2026-04-21 14:34 | 44.82084 | 0.58666 | 2308 ft | 179 kts | 93° |
| 2026-04-21 14:34 | 44.81982 | 0.60526 | 2598 ft | 202 kts | 93° |
| 2026-04-21 14:35 | 44.81978 | 0.62644 | 2950 ft | 229 kts | 76° |
| 2026-04-21 14:35 | 44.82872 | 0.64626 | 3401 ft | 254 kts | 36° |
| 2026-04-21 14:35 | 44.84555 | 0.65427 | 4204 ft | 265 kts | 0° |
| 2026-04-21 14:35 | 44.86347 | 0.64797 | 5093 ft | 269 kts | 334° |
| 2026-04-21 14:36 | 44.87976 | 0.63511 | 6081 ft | 269 kts | 325° |
| 2026-04-21 14:36 | 44.89561 | 0.62075 | 6946 ft | 272 kts | 325° |
| 2026-04-21 14:36 | 44.91179 | 0.60658 | 7820 ft | 276 kts | 326° |
| 2026-04-21 14:36 | 44.92695 | 0.59003 | 8675 ft | 277 kts | 311° |
| 2026-04-21 14:37 | 44.93832 | 0.56808 | 9558 ft | 278 kts | 296° |
| 2026-04-21 14:37 | 44.94514 | 0.54254 | 10340 ft | 280 kts | 281° |
| 2026-04-21 14:37 | 44.94814 | 0.51470 | 10791 ft | 298 kts | 277° |
| 2026-04-21 14:37 | 44.95093 | 0.48462 | 11134 ft | 317 kts | 277° |
| 2026-04-21 14:38 | 44.95372 | 0.45341 | 11810 ft | 323 kts | 277° |
| 2026-04-21 14:38 | 44.95655 | 0.42176 | 12584 ft | 327 kts | 277° |
| 2026-04-21 14:38 | 44.95940 | 0.38968 | 13370 ft | 330 kts | 277° |
| 2026-04-21 14:38 | 44.96228 | 0.35731 | 14039 ft | 335 kts | 277° |
| 2026-04-21 14:39 | 44.96519 | 0.32455 | 14701 ft | 338 kts | 277° |
| 2026-04-21 14:39 | 44.96813 | 0.29139 | 15367 ft | 341 kts | 277° |
| 2026-04-21 14:39 | 44.97107 | 0.25803 | 16047 ft | 344 kts | 277° |
| 2026-04-21 14:39 | 44.97413 | 0.22436 | 16729 ft | 347 kts | 279° |
| 2026-04-21 14:40 | 44.97816 | 0.20203 | 17162 ft | 349 kts | 289° |
| 2026-04-21 14:40 | 44.98893 | 0.17108 | 17814 ft | 354 kts | 302° |
| 2026-04-21 14:40 | 45.00484 | 0.14443 | 18460 ft | 358 kts | 316° |
| 2026-04-21 14:40 | 45.02504 | 0.12372 | 19069 ft | 362 kts | 329° |
| 2026-04-21 14:41 | 45.04756 | 0.10751 | 19658 ft | 365 kts | 331° |
| 2026-04-21 14:41 | 45.07046 | 0.09168 | 20236 ft | 368 kts | 332° |
| 2026-04-21 14:41 | 45.09360 | 0.07605 | 20812 ft | 370 kts | 332° |
| 2026-04-21 14:41 | 45.11699 | 0.06036 | 21380 ft | 373 kts | 332° |
| 2026-04-21 14:42 | 45.14053 | 0.04456 | 21945 ft | 376 kts | 332° |
| 2026-04-21 14:42 | 45.16423 | 0.02858 | 22515 ft | 379 kts | 332° |
| 2026-04-21 14:42 | 45.18809 | 0.01241 | 23063 ft | 381 kts | 332° |
| 2026-04-21 14:42 | 45.21211 | -0.00394 | 23593 ft | 384 kts | 331° |
| 2026-04-21 14:43 | 45.23627 | -0.02045 | 24001 ft | 388 kts | 331° |
| 2026-04-21 14:43 | 45.26069 | -0.03713 | 24405 ft | 391 kts | 331° |
| 2026-04-21 14:43 | 45.28528 | -0.05394 | 24833 ft | 393 kts | 331° |
| 2026-04-21 14:43 | 45.30999 | -0.07085 | 25271 ft | 395 kts | 331° |
| 2026-04-21 14:44 | 45.33485 | -0.08788 | 25706 ft | 397 kts | 331° |
| 2026-04-21 14:44 | 45.35983 | -0.10499 | 26130 ft | 400 kts | 331° |
| 2026-04-21 14:44 | 45.38496 | -0.12223 | 26549 ft | 402 kts | 331° |
| 2026-04-21 14:44 | 45.41014 | -0.13952 | 26979 ft | 403 kts | 331° |
| 2026-04-21 14:45 | 45.43552 | -0.15696 | 27410 ft | 405 kts | 331° |
| 2026-04-21 14:45 | 45.46096 | -0.17443 | 27823 ft | 407 kts | 331° |
| 2026-04-21 14:45 | 45.48691 | -0.19227 | 28247 ft | 410 kts | 331° |
| 2026-04-21 14:45 | 45.51232 | -0.20972 | 28630 ft | 412 kts | 331° |
| 2026-04-21 14:46 | 45.53855 | -0.22778 | 29019 ft | 414 kts | 331° |
| 2026-04-21 14:46 | 45.56455 | -0.24571 | 29403 ft | 417 kts | 330° |
| 2026-04-21 14:46 | 45.59069 | -0.26380 | 29792 ft | 418 kts | 330° |
| 2026-04-21 14:46 | 45.61693 | -0.28198 | 30165 ft | 420 kts | 330° |
| 2026-04-21 14:47 | 45.64322 | -0.30025 | 30467 ft | 421 kts | 330° |
| 2026-04-21 14:47 | 45.66831 | -0.32162 | 30756 ft | 420 kts | 321° |
| 2026-04-21 14:47 | 45.69141 | -0.34724 | 31042 ft | 421 kts | 319° |
| 2026-04-21 14:47 | 45.71443 | -0.37320 | 31340 ft | 423 kts | 319° |
| 2026-04-21 14:48 | 45.73753 | -0.39923 | 31702 ft | 422 kts | 319° |
| 2026-04-21 14:48 | 45.76059 | -0.42523 | 32125 ft | 421 kts | 319° |
| 2026-04-21 14:48 | 45.78356 | -0.45116 | 32563 ft | 420 kts | 319° |
| 2026-04-21 14:48 | 45.80646 | -0.47703 | 32996 ft | 418 kts | 319° |
| 2026-04-21 14:49 | 45.82923 | -0.50279 | 33424 ft | 417 kts | 318° |
| 2026-04-21 14:49 | 45.85196 | -0.52854 | 33861 ft | 416 kts | 318° |
| 2026-04-21 14:49 | 45.87466 | -0.55431 | 34228 ft | 415 kts | 318° |
| 2026-04-21 14:49 | 45.89725 | -0.57999 | 34581 ft | 414 kts | 318° |
| 2026-04-21 14:50 | 45.91218 | -0.59698 | 34805 ft | 414 kts | 318° |
| 2026-04-21 14:50 | 45.94235 | -0.63134 | 35235 ft | 413 kts | 318° |
| 2026-04-21 14:50 | 45.96484 | -0.65703 | 35540 ft | 413 kts | 318° |
| 2026-04-21 14:50 | 45.98732 | -0.68271 | 35875 ft | 412 kts | 318° |
| 2026-04-21 14:51 | 46.00974 | -0.70829 | 36195 ft | 411 kts | 318° |
| 2026-04-21 14:51 | 46.03212 | -0.73385 | 36477 ft | 411 kts | 318° |
| 2026-04-21 14:51 | 46.05480 | -0.75980 | 36751 ft | 411 kts | 318° |
| 2026-04-21 14:51 | 46.07718 | -0.78544 | 37017 ft | 411 kts | 318° |
| 2026-04-21 14:52 | 46.09952 | -0.81105 | 37243 ft | 411 kts | 318° |
| 2026-04-21 14:52 | 46.12189 | -0.83672 | 37460 ft | 412 kts | 318° |
| 2026-04-21 14:52 | 46.14433 | -0.86249 | 37695 ft | 412 kts | 318° |
| 2026-04-21 14:52 | 46.16672 | -0.88821 | 37927 ft | 412 kts | 318° |
| 2026-04-21 14:53 | 46.18912 | -0.91395 | 37960 ft | 411 kts | 318° |
| 2026-04-21 14:53 | 46.23378 | -0.96544 | 37950 ft | 410 kts | 318° |
| 2026-04-21 14:54 | 46.27838 | -1.01693 | 37953 ft | 410 kts | 318° |
| 2026-04-21 14:54 | 46.32297 | -1.06848 | 37954 ft | 410 kts | 317° |
| 2026-04-21 14:55 | 46.36747 | -1.12015 | 37967 ft | 410 kts | 317° |
| 2026-04-21 14:55 | 46.41193 | -1.17199 | 37984 ft | 410 kts | 317° |
| 2026-04-21 14:56 | 46.45647 | -1.22387 | 37985 ft | 411 kts | 317° |
| 2026-04-21 14:56 | 46.50092 | -1.27595 | 37991 ft | 411 kts | 317° |
| 2026-04-21 14:57 | 46.54582 | -1.32852 | 37999 ft | 412 kts | 317° |
| 2026-04-21 14:57 | 46.59037 | -1.38074 | 38013 ft | 412 kts | 317° |
| 2026-04-21 14:58 | 46.63082 | -1.43894 | 38015 ft | 408 kts | 310° |
| 2026-04-21 14:58 | 46.67019 | -1.49850 | 38012 ft | 409 kts | 310° |
| 2026-04-21 14:59 | 46.70961 | -1.55816 | 38007 ft | 408 kts | 310° |
| 2026-04-21 14:59 | 46.74888 | -1.61796 | 38002 ft | 408 kts | 310° |
| 2026-04-21 15:00 | 46.78806 | -1.67787 | 37988 ft | 409 kts | 310° |
| 2026-04-21 15:00 | 46.82740 | -1.73788 | 37989 ft | 409 kts | 310° |
| 2026-04-21 15:01 | 46.86670 | -1.79806 | 37984 ft | 409 kts | 310° |
| 2026-04-21 15:01 | 46.90596 | -1.85830 | 37983 ft | 409 kts | 310° |
| 2026-04-21 15:02 | 46.94526 | -1.91866 | 37985 ft | 410 kts | 310° |
| 2026-04-21 15:02 | 46.98481 | -1.97950 | 37994 ft | 410 kts | 310° |
| 2026-04-21 15:03 | 47.02419 | -2.04004 | 37989 ft | 410 kts | 310° |
| 2026-04-21 15:03 | 47.06433 | -2.09963 | 37983 ft | 412 kts | 311° |
| 2026-04-21 15:04 | 47.10472 | -2.15894 | 37979 ft | 413 kts | 311° |
| 2026-04-21 15:04 | 47.14530 | -2.21911 | 37993 ft | 413 kts | 311° |
| 2026-04-21 15:05 | 47.18569 | -2.27945 | 38009 ft | 413 kts | 311° |
| 2026-04-21 15:05 | 47.24628 | -2.37028 | 38008 ft | 413 kts | 311° |
| 2026-04-21 15:06 | 47.28645 | -2.43075 | 38009 ft | 413 kts | 311° |
| 2026-04-21 15:06 | 47.32666 | -2.49128 | 38005 ft | 413 kts | 311° |
| 2026-04-21 15:07 | 47.36689 | -2.55184 | 38006 ft | 414 kts | 311° |
| 2026-04-21 15:07 | 47.40714 | -2.61263 | 38005 ft | 414 kts | 311° |
| 2026-04-21 15:08 | 47.44735 | -2.67368 | 38011 ft | 415 kts | 310° |
| 2026-04-21 15:08 | 47.48750 | -2.73485 | 38014 ft | 415 kts | 311° |
| 2026-04-21 15:09 | 47.52769 | -2.79608 | 38018 ft | 415 kts | 310° |
| 2026-04-21 15:09 | 47.56925 | -2.85545 | 38005 ft | 418 kts | 320° |
| 2026-04-21 15:10 | 47.61218 | -2.89047 | 38005 ft | 426 kts | 336° |
| 2026-04-21 15:10 | 47.66995 | -2.91336 | 38010 ft | 430 kts | 342° |
| 2026-04-21 15:11 | 47.72801 | -2.93506 | 38012 ft | 430 kts | 341° |
| 2026-04-21 15:11 | 47.78608 | -2.95685 | 38021 ft | 431 kts | 342° |
| 2026-04-21 15:12 | 47.84426 | -2.97869 | 38012 ft | 431 kts | 342° |
| 2026-04-21 15:12 | 47.90247 | -3.00056 | 38018 ft | 432 kts | 342° |
| 2026-04-21 15:13 | 47.96116 | -3.02257 | 38017 ft | 432 kts | 342° |
| 2026-04-21 15:13 | 48.01942 | -3.04458 | 38042 ft | 432 kts | 342° |
| 2026-04-21 15:14 | 48.07769 | -3.06674 | 38048 ft | 432 kts | 342° |
| 2026-04-21 15:14 | 48.13597 | -3.08889 | 38052 ft | 432 kts | 342° |
| 2026-04-21 15:15 | 48.19418 | -3.11110 | 38076 ft | 432 kts | 342° |
| 2026-04-21 15:15 | 48.25233 | -3.13326 | 38074 ft | 431 kts | 342° |
| 2026-04-21 15:16 | 48.31040 | -3.15541 | 38078 ft | 430 kts | 342° |
| 2026-04-21 15:16 | 48.36839 | -3.17756 | 38086 ft | 430 kts | 342° |
| 2026-04-21 15:17 | 48.42630 | -3.19982 | 38096 ft | 429 kts | 342° |
| 2026-04-21 15:17 | 48.48412 | -3.22212 | 38101 ft | 428 kts | 341° |
| 2026-04-21 15:18 | 48.54170 | -3.24440 | 38103 ft | 427 kts | 341° |
| 2026-04-21 15:18 | 48.59930 | -3.26664 | 38111 ft | 427 kts | 342° |
| 2026-04-21 15:19 | 48.65681 | -3.28892 | 38131 ft | 426 kts | 341° |
| 2026-04-21 15:19 | 48.71424 | -3.31122 | 38139 ft | 426 kts | 342° |
| 2026-04-21 15:20 | 48.77166 | -3.33363 | 38126 ft | 425 kts | 342° |
| 2026-04-21 15:20 | 48.82929 | -3.35624 | 38123 ft | 425 kts | 341° |
| 2026-04-21 15:21 | 48.88655 | -3.37863 | 38118 ft | 425 kts | 341° |
| 2026-04-21 15:21 | 48.94385 | -3.40110 | 38120 ft | 425 kts | 342° |
| 2026-04-21 15:22 | 49.00107 | -3.42362 | 38121 ft | 425 kts | 342° |
| 2026-04-21 15:22 | 49.05829 | -3.44623 | 38142 ft | 424 kts | 342° |
| 2026-04-21 15:23 | 49.11546 | -3.46875 | 38149 ft | 424 kts | 341° |
| 2026-04-21 15:23 | 49.17252 | -3.49120 | 38148 ft | 424 kts | 342° |
| 2026-04-21 15:24 | 49.22954 | -3.51388 | 38153 ft | 423 kts | 342° |
| 2026-04-21 15:24 | 49.28652 | -3.53663 | 38167 ft | 423 kts | 341° |
| 2026-04-21 15:25 | 49.34265 | -3.56264 | 38159 ft | 420 kts | 336° |
| 2026-04-21 15:25 | 49.39746 | -3.59401 | 38155 ft | 420 kts | 335° |
| 2026-04-21 15:26 | 49.45230 | -3.62531 | 38148 ft | 421 kts | 336° |
| 2026-04-21 15:26 | 49.50725 | -3.65668 | 38169 ft | 421 kts | 335° |
| 2026-04-21 15:27 | 49.56217 | -3.68815 | 38172 ft | 421 kts | 336° |
| 2026-04-21 15:27 | 49.61746 | -3.71992 | 38177 ft | 421 kts | 335° |
| 2026-04-21 15:28 | 49.67261 | -3.75069 | 38178 ft | 423 kts | 341° |
| 2026-04-21 15:28 | 49.73162 | -3.76029 | 38198 ft | 433 kts | 0° |
| 2026-04-21 15:29 | 49.79174 | -3.75320 | 38191 ft | 434 kts | 0° |
| 2026-04-21 15:29 | 49.85193 | -3.74610 | 38194 ft | 434 kts | 359° |
| 2026-04-21 15:30 | 49.91212 | -3.73904 | 38206 ft | 434 kts | 0° |
| 2026-04-21 15:30 | 49.97237 | -3.73201 | 38203 ft | 434 kts | 0° |
| 2026-04-21 15:31 | 50.03264 | -3.72477 | 38206 ft | 434 kts | 0° |
| 2026-04-21 15:31 | 50.09289 | -3.71755 | 38208 ft | 434 kts | 359° |
| 2026-04-21 15:32 | 50.15313 | -3.71038 | 38216 ft | 434 kts | 0° |
| 2026-04-21 15:32 | 50.21341 | -3.70313 | 38215 ft | 435 kts | 0° |
| 2026-04-21 15:33 | 50.27381 | -3.69587 | 38214 ft | 435 kts | 0° |
| 2026-04-21 15:33 | 50.33415 | -3.68862 | 38215 ft | 435 kts | 0° |
| 2026-04-21 15:34 | 50.39456 | -3.68133 | 38238 ft | 435 kts | 1° |
| 2026-04-21 15:34 | 50.45480 | -3.67269 | 38236 ft | 436 kts | 3° |
| 2026-04-21 15:35 | 50.51499 | -3.66078 | 38230 ft | 436 kts | 4° |
| 2026-04-21 15:35 | 50.57513 | -3.64836 | 38233 ft | 436 kts | 4° |
| 2026-04-21 15:36 | 50.63568 | -3.63656 | 38243 ft | 436 kts | 3° |
| 2026-04-21 15:36 | 50.69587 | -3.62517 | 38238 ft | 435 kts | 3° |
| 2026-04-21 15:37 | 50.75590 | -3.61368 | 38234 ft | 435 kts | 3° |
| 2026-04-21 15:37 | 50.81615 | -3.60208 | 38233 ft | 435 kts | 3° |
| 2026-04-21 15:38 | 50.87630 | -3.59053 | 38238 ft | 435 kts | 3° |
| 2026-04-21 15:38 | 50.93640 | -3.57886 | 38236 ft | 435 kts | 3° |
| 2026-04-21 15:39 | 50.99650 | -3.56717 | 38234 ft | 435 kts | 3° |
| 2026-04-21 15:39 | 51.05663 | -3.55543 | 38241 ft | 435 kts | 3° |
| 2026-04-21 15:40 | 51.11713 | -3.54359 | 38247 ft | 435 kts | 4° |
| 2026-04-21 15:40 | 51.17682 | -3.53186 | 38245 ft | 435 kts | 4° |
| 2026-04-21 15:41 | 51.23728 | -3.52006 | 38244 ft | 435 kts | 3° |
| 2026-04-21 15:41 | 51.29736 | -3.50832 | 38255 ft | 435 kts | 4° |
| 2026-04-21 15:42 | 51.34729 | -3.49853 | 38263 ft | 435 kts | 2° |
| 2026-04-21 15:42 | 51.40745 | -3.48679 | 38260 ft | 435 kts | 3° |
| 2026-04-21 15:43 | 51.46759 | -3.47495 | 38258 ft | 435 kts | 3° |
| 2026-04-21 15:43 | 51.52771 | -3.46306 | 38270 ft | 435 kts | 4° |
| 2026-04-21 15:44 | 51.58787 | -3.45103 | 38260 ft | 436 kts | 4° |
| 2026-04-21 15:44 | 51.61801 | -3.44502 | 37515 ft | 440 kts | 3° |
| 2026-04-21 15:44 | 51.64873 | -3.43898 | 36128 ft | 449 kts | 2° |
| 2026-04-21 15:45 | 51.68031 | -3.43273 | 35136 ft | 450 kts | 2° |
| 2026-04-21 15:45 | 51.71106 | -3.42649 | 34825 ft | 441 kts | 2° |
| 2026-04-21 15:45 | 51.74175 | -3.42023 | 34282 ft | 438 kts | 1° |
| 2026-04-21 15:45 | 51.77185 | -3.41413 | 33741 ft | 433 kts | 1° |
| 2026-04-21 15:46 | 51.80156 | -3.40815 | 33217 ft | 428 kts | 1° |
| 2026-04-21 15:46 | 51.83095 | -3.40225 | 32718 ft | 422 kts | 1° |
| 2026-04-21 15:46 | 51.85993 | -3.39644 | 32180 ft | 418 kts | 1° |
| 2026-04-21 15:46 | 51.88864 | -3.39067 | 31682 ft | 413 kts | 1° |
| 2026-04-21 15:47 | 51.91695 | -3.38498 | 31190 ft | 408 kts | 1° |
| 2026-04-21 15:47 | 51.94503 | -3.38006 | 30676 ft | 403 kts | 358° |
| 2026-04-21 15:47 | 51.97282 | -3.37705 | 30153 ft | 398 kts | 356° |
| 2026-04-21 15:47 | 52.00026 | -3.37529 | 29671 ft | 392 kts | 355° |
| 2026-04-21 15:48 | 52.02823 | -3.37401 | 29169 ft | 386 kts | 355° |
| 2026-04-21 15:48 | 52.05395 | -3.37286 | 28742 ft | 380 kts | 355° |
| 2026-04-21 15:48 | 52.08017 | -3.37146 | 28300 ft | 376 kts | 355° |
| 2026-04-21 15:48 | 52.10630 | -3.36982 | 27865 ft | 371 kts | 355° |
| 2026-04-21 15:49 | 52.13180 | -3.36802 | 27441 ft | 367 kts | 356° |
| 2026-04-21 15:49 | 52.15718 | -3.36613 | 27027 ft | 364 kts | 356° |
| 2026-04-21 15:49 | 52.18234 | -3.36426 | 26611 ft | 360 kts | 356° |
| 2026-04-21 15:49 | 52.20727 | -3.36243 | 26202 ft | 357 kts | 356° |
| 2026-04-21 15:50 | 52.23205 | -3.36061 | 25770 ft | 355 kts | 356° |
| 2026-04-21 15:50 | 52.25664 | -3.35879 | 25349 ft | 353 kts | 356° |
| 2026-04-21 15:50 | 52.28115 | -3.35701 | 24902 ft | 352 kts | 356° |
| 2026-04-21 15:50 | 52.30552 | -3.35526 | 24454 ft | 350 kts | 356° |
| 2026-04-21 15:51 | 52.32981 | -3.35350 | 23997 ft | 349 kts | 356° |
| 2026-04-21 15:51 | 52.35400 | -3.35176 | 23497 ft | 347 kts | 356° |
| 2026-04-21 15:51 | 52.37832 | -3.35001 | 23028 ft | 344 kts | 356° |
| 2026-04-21 15:51 | 52.40212 | -3.34827 | 22570 ft | 341 kts | 357° |
| 2026-04-21 15:52 | 52.42571 | -3.34654 | 22119 ft | 338 kts | 358° |
| 2026-04-21 15:52 | 52.44911 | -3.34479 | 21686 ft | 336 kts | 358° |
| 2026-04-21 15:52 | 52.47242 | -3.34305 | 21246 ft | 334 kts | 358° |
| 2026-04-21 15:52 | 52.49560 | -3.34132 | 20814 ft | 333 kts | 359° |
| 2026-04-21 15:53 | 52.51868 | -3.33963 | 20377 ft | 331 kts | 359° |
| 2026-04-21 15:53 | 52.54164 | -3.33795 | 19949 ft | 330 kts | 359° |
| 2026-04-21 15:53 | 52.56448 | -3.33629 | 19526 ft | 329 kts | 1° |
| 2026-04-21 15:53 | 52.58730 | -3.33461 | 19106 ft | 328 kts | 0° |
| 2026-04-21 15:54 | 52.61009 | -3.33290 | 18679 ft | 328 kts | 2° |
| 2026-04-21 15:54 | 52.63273 | -3.32852 | 18231 ft | 328 kts | 13° |
| 2026-04-21 15:54 | 52.65427 | -3.31684 | 17782 ft | 327 kts | 20° |
| 2026-04-21 15:54 | 52.67552 | -3.30412 | 17423 ft | 323 kts | 20° |
| 2026-04-21 15:55 | 52.69665 | -3.29152 | 17055 ft | 321 kts | 20° |
| 2026-04-21 15:55 | 52.71764 | -3.27906 | 16673 ft | 320 kts | 20° |
| 2026-04-21 15:55 | 52.73855 | -3.26663 | 16280 ft | 319 kts | 21° |
| 2026-04-21 15:55 | 52.75938 | -3.25421 | 15917 ft | 318 kts | 23° |
| 2026-04-21 15:56 | 52.78011 | -3.24180 | 15555 ft | 316 kts | 23° |
| 2026-04-21 15:56 | 52.80073 | -3.22942 | 15209 ft | 315 kts | 23° |
| 2026-04-21 15:56 | 52.82124 | -3.21709 | 14875 ft | 312 kts | 24° |
| 2026-04-21 15:56 | 52.84163 | -3.20484 | 14433 ft | 310 kts | 22° |
| 2026-04-21 15:57 | 52.86187 | -3.19268 | 13977 ft | 309 kts | 23° |
| 2026-04-21 15:57 | 52.88197 | -3.18065 | 13480 ft | 306 kts | 22° |
| 2026-04-21 15:57 | 52.90278 | -3.17325 | 12871 ft | 307 kts | 7° |
| 2026-04-21 15:57 | 52.92406 | -3.17158 | 12266 ft | 306 kts | 6° |
| 2026-04-21 15:58 | 52.94522 | -3.17007 | 11666 ft | 303 kts | 8° |
| 2026-04-21 15:58 | 52.96621 | -3.16847 | 11064 ft | 300 kts | 5° |
| 2026-04-21 15:58 | 52.98689 | -3.16686 | 10488 ft | 298 kts | 7° |
| 2026-04-21 15:58 | 53.00781 | -3.16523 | 9874 ft | 294 kts | 7° |
| 2026-04-21 15:59 | 53.02803 | -3.16372 | 9416 ft | 290 kts | 6° |
| 2026-04-21 15:59 | 53.04826 | -3.16217 | 8960 ft | 291 kts | 8° |
| 2026-04-21 15:59 | 53.06834 | -3.16060 | 8581 ft | 287 kts | 9° |
| 2026-04-21 15:59 | 53.08831 | -3.15901 | 8183 ft | 286 kts | 9° |
| 2026-04-21 16:00 | 53.10805 | -3.15744 | 7854 ft | 282 kts | 9° |
| 2026-04-21 16:00 | 53.12730 | -3.15591 | 7736 ft | 270 kts | 9° |
| 2026-04-21 16:00 | 53.14567 | -3.15445 | 7620 ft | 259 kts | 8° |
| 2026-04-21 16:00 | 53.16325 | -3.15308 | 7505 ft | 248 kts | 6° |
| 2026-04-21 16:01 | 53.17999 | -3.15866 | 7392 ft | 248 kts | 338° |
| 2026-04-21 16:01 | 53.19293 | -3.17758 | 7156 ft | 255 kts | 305° |
| 2026-04-21 16:01 | 53.19864 | -3.20576 | 6706 ft | 260 kts | 278° |
| 2026-04-21 16:01 | 53.20367 | -3.23468 | 6265 ft | 260 kts | 305° |
| 2026-04-21 16:02 | 53.21661 | -3.25441 | 5879 ft | 250 kts | 339° |
| 2026-04-21 16:02 | 53.23295 | -3.26182 | 5467 ft | 241 kts | 4° |
| 2026-04-21 16:02 | 53.24927 | -3.25761 | 4961 ft | 234 kts | 28° |
| 2026-04-21 16:02 | 53.26250 | -3.24349 | 4645 ft | 221 kts | 50° |
| 2026-04-21 16:03 | 53.27240 | -3.22440 | 4322 ft | 217 kts | 55° |
| 2026-04-21 16:03 | 53.28207 | -3.20521 | 4028 ft | 214 kts | 55° |
| 2026-04-21 16:03 | 53.29162 | -3.18629 | 3746 ft | 211 kts | 54° |
| 2026-04-21 16:03 | 53.30104 | -3.16771 | 3485 ft | 208 kts | 55° |
| 2026-04-21 16:04 | 53.31030 | -3.14941 | 3222 ft | 204 kts | 55° |
| 2026-04-21 16:04 | 53.31842 | -3.13010 | 2960 ft | 196 kts | 69° |
| 2026-04-21 16:04 | 53.32138 | -3.10847 | 2786 ft | 187 kts | 87° |
| 2026-04-21 16:04 | 53.32238 | -3.08750 | 2693 ft | 177 kts | 86° |
| 2026-04-21 16:05 | 53.32336 | -3.06731 | 2515 ft | 171 kts | 86° |
| 2026-04-21 16:05 | 53.32430 | -3.04803 | 2279 ft | 160 kts | 86° |
| 2026-04-21 16:05 | 53.32515 | -3.03022 | 2069 ft | 147 kts | 86° |
| 2026-04-21 16:05 | 53.32594 | -3.01375 | 1881 ft | 138 kts | 85° |
| 2026-04-21 16:06 | 53.32667 | -2.99823 | 1691 ft | 130 kts | 85° |
| 2026-04-21 16:06 | 53.32737 | -2.98351 | 1521 ft | 125 kts | 86° |
| 2026-04-21 16:06 | 53.32806 | -2.96904 | 1346 ft | 124 kts | 86° |
| 2026-04-21 16:06 | 53.32874 | -2.95458 | 1179 ft | 126 kts | 86° |
| 2026-04-21 16:07 | 53.32942 | -2.94013 | 997 ft | 123 kts | 86° |
| 2026-04-21 16:07 | 53.33009 | -2.92585 | 832 ft | 125 kts | 86° |
| 2026-04-21 16:07 | 53.33076 | -2.91143 | 671 ft | 125 kts | 86° |
| 2026-04-21 16:07 | 53.33144 | -2.89698 | 491 ft | 123 kts | 86° |
| 2026-04-21 16:08 | 53.33281 | -2.86773 | 125 ft | 127 kts | 86° |
| 2026-04-21 16:08 | 53.33346 | -2.85377 | 84 ft | 107 kts | 86° |
| 2026-04-21 16:08 | 53.33387 | -2.84647 | 69 ft | 21 kts | 69° |
| 2026-04-21 16:09 | 53.33438 | -2.84475 | 81 ft | 14 kts | 60° |
| 2026-04-21 16:09 | 53.33486 | -2.84339 | 79 ft | 14 kts | 58° |
| 2026-04-21 16:09 | 53.33546 | -2.84254 | 73 ft | 11 kts | 342° |
| 2026-04-21 16:09 | 53.33556 | -2.84387 | 73 ft | 13 kts | 265° |
| 2026-04-21 16:10 | 53.33550 | -2.84534 | 81 ft | 12 kts | 266° |
| 2026-04-21 16:10 | 53.33543 | -2.84672 | 80 ft | 12 kts | 265° |
| 2026-04-21 16:10 | 53.33537 | -2.84800 | 85 ft | 10 kts | 265° |
| 2026-04-21 16:10 | 53.33532 | -2.84908 | 85 ft | 10 kts | 265° |
| 2026-04-21 16:11 | 53.33526 | -2.85024 | 85 ft | 10 kts | 265° |
| 2026-04-21 16:11 | 53.33521 | -2.85148 | 85 ft | 11 kts | 265° |
| 2026-04-21 16:11 | 53.33514 | -2.85284 | 84 ft | 12 kts | 265° |
| 2026-04-21 16:11 | 53.33507 | -2.85432 | 85 ft | 13 kts | 265° |
| 2026-04-21 16:12 | 53.33503 | -2.85538 | 84 ft | 14 kts | 266° |
| 2026-04-21 16:12 | 53.33494 | -2.85754 | 84 ft | 15 kts | 265° |
| 2026-04-21 16:12 | 53.33488 | -2.85863 | 85 ft | 8 kts | 265° |
| 2026-04-21 16:12 | 53.33514 | -2.85935 | 86 ft | 7 kts | 356° |
| 2026-04-21 16:13 | 53.33559 | -2.85934 | 85 ft | 8 kts | 353° |
| 2026-04-21 16:13 | 53.33597 | -2.85984 | 88 ft | 7 kts | 279° |
| 2026-04-21 16:13 | 53.33592 | -2.86076 | 87 ft | 9 kts | 265° |
| 2026-04-21 16:13 | 53.33586 | -2.86185 | 85 ft | 9 kts | 265° |
| 2026-04-21 16:14 | 53.33618 | -2.86238 | 86 ft | 8 kts | 355° |
| 2026-04-21 16:14 | 53.33647 | -2.86241 | 85 ft | 1 kts | 356° |
| 2026-04-21 16:14 | 53.33651 | -2.86242 | 85 ft | 0 kts | 356° |